Time;durP1;ratioP1;P1;durP2;ratioP2;P2;SDS_P1;SDS_P2;PMS_P1;PMS_P2;Temp;Humidity;BMP_temperature;BMP_pressure;BME280_temperature;BME280_humidity;BME280_pressure;Samples;Min_cycle;Max_cycle;Signal;HPM_P1;HPM_P2
2022/12/25 00:07:37;;;;;;;29.03;11.43;;;;;;;6.61;100.00;99841.47;31324651;28;20091;-78
2022/12/25 00:22:39;;;;;;;29.73;11.10;;;;;;;6.57;100.00;99846.91;31312645;28;20057;-76
2022/12/25 00:37:41;;;;;;;25.93;9.90;;;;;;;6.01;100.00;99789.50;31306417;28;20119;-74
2022/12/25 00:52:43;;;;;;;27.70;9.83;;;;;;;6.03;100.00;99767.53;31298092;28;20049;-76
2022/12/25 01:07:45;;;;;;;27.03;10.03;;;;;;;5.90;100.00;99782.66;31283803;28;20115;-78
2022/12/25 01:22:47;;;;;;;26.70;11.50;;;;;;;5.87;100.00;99780.72;31311068;28;20057;-77
2022/12/25 01:37:52;;;;;;;33.20;11.50;;;;;;;5.87;100.00;99776.09;31287981;28;20049;-76
2022/12/25 01:52:56;;;;;;;31.10;12.07;;;;;;;5.94;100.00;99756.44;31283755;28;20050;-75
2022/12/25 02:08:03;;;;;;;34.57;11.53;;;;;;;6.08;100.00;99759.06;31296526;28;20408;-76
2022/12/25 02:23:33;;;;;;;33.43;11.20;;;;;;;5.99;100.00;99772.19;31280693;28;20131;-76
2022/12/25 02:39:56;;;;;;;28.63;11.57;;;;;;;5.75;100.00;99742.28;31287227;28;20065;-75
2022/12/25 04:42:16;;;;;;;63.30;16.57;;;;;;;6.24;100.00;99786.25;31287446;28;20052;-76
2022/12/25 04:57:19;;;;;;;68.87;16.70;;;;;;;6.38;100.00;99799.63;31268657;28;20426;-76
2022/12/25 05:12:21;;;;;;;72.17;17.23;;;;;;;6.56;100.00;99823.78;31280936;28;20053;-76
2022/12/25 05:27:23;;;;;;;55.10;16.37;;;;;;;6.37;100.00;99852.03;31268357;28;20414;-75
2022/12/25 05:42:24;;;;;;;52.53;15.40;;;;;;;6.30;100.00;99876.34;31274704;28;20556;-75
2022/12/25 05:57:30;;;;;;;48.07;13.30;;;;;;;6.57;100.00;99894.66;31283759;28;20068;-74
2022/12/25 06:12:32;;;;;;;52.87;15.53;;;;;;;6.57;100.00;99886.56;31296968;28;20115;-75
2022/12/25 06:27:34;;;;;;;43.90;15.03;;;;;;;6.37;100.00;99905.97;31276144;28;21853;-76
2022/12/25 06:42:36;;;;;;;41.40;15.70;;;;;;;6.40;100.00;99921.34;31277792;28;20387;-75
2022/12/25 06:57:38;;;;;;;55.10;17.40;;;;;;;6.53;100.00;99910.09;31273252;28;20087;-76
2022/12/25 07:12:40;;;;;;;59.50;16.13;;;;;;;6.66;100.00;99954.31;31274280;28;20060;-77
2022/12/25 07:27:42;;;;;;;62.17;18.70;;;;;;;6.81;100.00;99971.97;31287449;28;20061;-76
2022/12/25 07:42:44;;;;;;;62.63;20.13;;;;;;;6.99;100.00;99975.31;31271028;28;20503;-76
2022/12/25 07:57:46;;;;;;;64.77;19.60;;;;;;;7.26;100.00;99978.19;31249888;28;20490;-76
2022/12/25 08:12:48;;;;;;;72.23;18.57;;;;;;;7.36;100.00;99984.66;31284820;28;20068;-76
2022/12/25 08:27:50;;;;;;;87.40;18.70;;;;;;;7.33;100.00;99963.84;31292392;28;20406;-75
2022/12/25 08:42:55;;;;;;;79.30;18.83;;;;;;;7.93;100.00;99952.44;31309001;28;20044;-75
2022/12/25 08:57:57;;;;;;;65.27;15.17;;;;;;;8.12;100.00;99961.88;31322055;28;20437;-76
2022/12/25 09:12:59;;;;;;;67.03;17.80;;;;;;;7.71;100.00;99962.72;31326670;28;20056;-75
2022/12/25 09:28:01;;;;;;;88.30;19.90;;;;;;;7.78;100.00;99957.25;31310112;28;20049;-76
2022/12/25 09:43:03;;;;;;;77.83;20.00;;;;;;;7.90;100.00;99941.66;31295274;28;20075;-76
2022/12/25 09:58:12;;;;;;;102.40;27.60;;;;;;;8.11;100.00;99930.59;31291566;28;20080;-77
2022/12/25 10:13:44;;;;;;;125.40;22.57;;;;;;;8.21;100.00;99911.56;31289069;28;20064;-77
2022/12/25 13:33:18;;;;;;;132.57;36.30;;;;;;;10.03;100.00;99284.84;31421474;28;20447;-76
2022/12/25 13:48:22;;;;;;;99.20;21.63;;;;;;;9.87;100.00;99695.81;31286432;28;20049;-78
2022/12/25 14:03:40;;;;;;;86.40;19.70;;;;;;;9.87;100.00;99850.38;31252280;28;20478;-77
2022/12/25 14:18:54;;;;;;;76.80;19.73;;;;;;;9.75;100.00;99909.84;31249386;28;20470;-79
2022/12/25 14:33:59;;;;;;;81.57;21.73;;;;;;;9.44;100.00;99926.31;31177439;28;20053;-79
2022/12/25 14:49:19;;;;;;;77.47;19.80;;;;;;;9.49;100.00;99933.94;31178229;28;20099;-77
2022/12/25 15:04:22;;;;;;;77.47;19.70;;;;;;;9.44;100.00;99947.22;31163336;28;20124;-78
2022/12/25 15:19:28;;;;;;;124.00;33.87;;;;;;;9.47;100.00;99952.56;31189361;28;20423;-82
2022/12/25 15:34:37;;;;;;;87.73;26.10;;;;;;;9.36;100.00;99956.66;31161060;28;20050;-80
2022/12/25 15:49:40;;;;;;;81.07;23.17;;;;;;;9.24;100.00;99972.28;31176146;28;20092;-78
2022/12/25 16:04:42;;;;;;;70.77;20.93;;;;;;;9.16;100.00;99989.84;31233540;28;20088;-82
2022/12/25 16:19:44;;;;;;;74.70;20.97;;;;;;;9.23;100.00;99987.00;31191040;28;20510;-84
2022/12/25 16:34:47;;;;;;;74.73;19.97;;;;;;;9.28;100.00;99998.56;31189721;28;20104;-79
2022/12/25 16:49:49;;;;;;;200.90;71.37;;;;;;;9.14;100.00;99994.91;31207214;28;20084;-83
2022/12/25 17:04:51;;;;;;;66.07;22.23;;;;;;;9.04;100.00;99984.22;31196879;28;20050;-76
2022/12/25 17:19:53;;;;;;;80.00;24.07;;;;;;;9.18;100.00;99984.78;31166299;28;20102;-76
2022/12/25 17:34:55;;;;;;;80.67;23.30;;;;;;;9.14;100.00;100003.03;31127220;28;20048;-75
2022/12/25 17:49:57;;;;;;;74.10;23.33;;;;;;;9.36;100.00;100018.94;31173208;28;20087;-76
2022/12/25 18:04:59;;;;;;;74.30;22.83;;;;;;;9.33;100.00;100014.34;31166870;28;20053;-76
2022/12/25 18:20:05;;;;;;;65.60;23.47;;;;;;;9.32;100.00;100005.47;31197373;28;20779;-77
2022/12/25 18:35:08;;;;;;;63.87;21.67;;;;;;;9.38;100.00;100008.47;31163078;28;20403;-76
2022/12/25 18:50:11;;;;;;;68.97;21.10;;;;;;;9.32;100.00;100004.69;31197947;28;20054;-76
2022/12/25 19:05:14;;;;;;;106.00;32.60;;;;;;;9.18;100.00;100017.31;31140623;28;20045;-74
2022/12/25 22:20:33;;;;;;;62.33;17.27;;;;;;;9.22;100.00;99269.72;31675682;27;20852;-74
2022/12/25 22:35:35;;;;;;;54.03;15.60;;;;;;;9.26;100.00;99713.81;31661754;28;20048;-73
2022/12/25 22:50:37;;;;;;;54.07;15.37;;;;;;;9.22;100.00;99980.06;31668007;28;20166;-74
2022/12/25 23:05:39;;;;;;;41.10;12.57;;;;;;;8.67;100.00;100020.34;31706629;28;20419;-74
2022/12/25 23:36:01;;;;;;;35.03;13.13;;;;;;;8.30;100.00;100040.09;31594643;28;20117;-74
2022/12/25 23:51:05;;;;;;;35.43;13.30;;;;;;;8.46;100.00;100061.97;31624495;28;20521;-73
